Terminal Aerodrome Forecast
Issued by NWS

Home | Current Version | Previous Version | Text Only | Print | Product List | Glossary On
Versions: 1 2 3 4 5 6 7 8 9 10 11 12 13
000
FTUS42 KMLB 201700 RRA
TAFLEE
TAF
KLEE 201743Z 2018/2118 12005KT P6SM SCT050
     FM210000 VRB02KT P6SM BKN250
      TEMPO 2109/2112 4SM BR
     FM211400 VRB04KT P6SM SCT030 BKN150 OVC250=

USA.gov is the U.S. government's official web portal to all federal, state and local government web resources and services.